Etusivu
METAR-TAF:

METAR-TAF

Lentoasemat :

Llano Municipal Airport

Llano, Texas, Yhdysvallat

Leveyspiiri: 30-47-01N, Pituuspiiri: 098-39-43W, korkeus merenpinnasta: 336 m

Tämänhetkinen sää

Tämä raportti tehtiin 42 minuuttia sitten, kello 10.10 UTC
tyyntä
Lämpötila 24°C
Kosteus 83%
Ilmanpaine 1017 hPa
Näkyvyys: 11.3 km
selkeää

METAR: KAQO 031010Z AUTO 00000KT 7SM CLR 24/21 A3004 RMK AO2 PWINO

Aika: 05:52 (10:52 UTC)


TAF: puuttuu

Säähavainnot ja -ennusteet yli 4000 lentoasemalta (METAR- ja TAF-raportit).

Käytössä olevat sääasemat on merkitty karttaan keltaisilla ja punaisilla pisteillä.

Aseta hiiri pisteen päälle nähdäksesi sääaseman nimen.

Klikkaa sitten nähdäksesi säähavainnot ja -ennusteet.

Kartan vaihtaminen: klikkaa mustalla rastilla varustettuja vihreitä pisteitä, niin voit zoomata sisään; viivalla varustettua vihreää pistettä, niin voit zoomata ulos tai vihreitä nuolia, niin pääset viereisille kartoille.


METAR-TAF: